sensor_id;sensor_type;location;lat;lon;timestamp;P1;durP1;ratioP1;P2;durP2;ratioP2
16954;SDS011;8594;52.052;8.354;2024-03-23T00:54:48;20.60;;;6.63;;
16954;SDS011;8594;52.052;8.354;2024-03-23T00:57:14;25.67;;;7.07;;
16954;SDS011;8594;52.052;8.354;2024-03-23T00:59:40;19.17;;;6.60;;
16954;SDS011;8594;52.052;8.354;2024-03-23T01:02:07;22.07;;;6.43;;
16954;SDS011;8594;52.052;8.354;2024-03-23T01:04:33;23.77;;;7.47;;
16954;SDS011;8594;52.052;8.354;2024-03-23T01:06:59;26.27;;;6.57;;
16954;SDS011;8594;52.052;8.354;2024-03-23T01:09:26;28.10;;;6.77;;
16954;SDS011;8594;52.052;8.354;2024-03-23T01:11:53;22.10;;;6.80;;
16954;SDS011;8594;52.052;8.354;2024-03-23T01:14:19;21.97;;;6.77;;
16954;SDS011;8594;52.052;8.354;2024-03-23T01:16:46;22.67;;;6.83;;
16954;SDS011;8594;52.052;8.354;2024-03-23T01:19:11;19.90;;;6.40;;
16954;SDS011;8594;52.052;8.354;2024-03-23T01:21:39;24.87;;;6.93;;
16954;SDS011;8594;52.052;8.354;2024-03-23T01:24:05;19.17;;;6.40;;
16954;SDS011;8594;52.052;8.354;2024-03-23T01:26:35;17.10;;;6.30;;
16954;SDS011;8594;52.052;8.354;2024-03-23T01:29:02;20.13;;;6.70;;
16954;SDS011;8594;52.052;8.354;2024-03-23T01:31:28;19.83;;;6.23;;
16954;SDS011;8594;52.052;8.354;2024-03-23T01:33:54;20.83;;;6.13;;
16954;SDS011;8594;52.052;8.354;2024-03-23T01:36:21;21.90;;;6.30;;
16954;SDS011;8594;52.052;8.354;2024-03-23T01:38:47;23.80;;;6.30;;
16954;SDS011;8594;52.052;8.354;2024-03-23T01:41:14;22.97;;;5.30;;
16954;SDS011;8594;52.052;8.354;2024-03-23T01:43:41;16.67;;;5.37;;
16954;SDS011;8594;52.052;8.354;2024-03-23T01:46:08;22.00;;;5.70;;
16954;SDS011;8594;52.052;8.354;2024-03-23T01:48:34;17.73;;;5.20;;
16954;SDS011;8594;52.052;8.354;2024-03-23T01:51:01;18.07;;;4.90;;
16954;SDS011;8594;52.052;8.354;2024-03-23T01:53:27;16.63;;;5.23;;
16954;SDS011;8594;52.052;8.354;2024-03-23T01:55:54;21.93;;;6.20;;
16954;SDS011;8594;52.052;8.354;2024-03-23T01:58:22;18.63;;;4.87;;
16954;SDS011;8594;52.052;8.354;2024-03-23T02:00:50;15.90;;;5.47;;
16954;SDS011;8594;52.052;8.354;2024-03-23T02:03:22;13.27;;;4.87;;
16954;SDS011;8594;52.052;8.354;2024-03-23T02:05:50;17.80;;;5.43;;
16954;SDS011;8594;52.052;8.354;2024-03-23T02:08:17;18.20;;;5.13;;
16954;SDS011;8594;52.052;8.354;2024-03-23T02:10:47;19.13;;;5.00;;
16954;SDS011;8594;52.052;8.354;2024-03-23T02:13:13;12.37;;;5.00;;
16954;SDS011;8594;52.052;8.354;2024-03-23T02:15:40;13.33;;;4.97;;
16954;SDS011;8594;52.052;8.354;2024-03-23T02:18:08;16.30;;;5.30;;
16954;SDS011;8594;52.052;8.354;2024-03-23T02:20:35;13.00;;;4.47;;
16954;SDS011;8594;52.052;8.354;2024-03-23T02:23:02;19.20;;;5.37;;
16954;SDS011;8594;52.052;8.354;2024-03-23T02:25:31;16.43;;;5.00;;
16954;SDS011;8594;52.052;8.354;2024-03-23T02:27:56;10.23;;;4.93;;
16954;SDS011;8594;52.052;8.354;2024-03-23T02:30:24;18.63;;;5.20;;
16954;SDS011;8594;52.052;8.354;2024-03-23T02:32:50;12.30;;;4.63;;
16954;SDS011;8594;52.052;8.354;2024-03-23T02:35:16;16.00;;;5.03;;
16954;SDS011;8594;52.052;8.354;2024-03-23T02:37:42;12.67;;;4.73;;
16954;SDS011;8594;52.052;8.354;2024-03-23T02:40:10;17.97;;;4.53;;
16954;SDS011;8594;52.052;8.354;2024-03-23T02:42:36;18.10;;;4.33;;
16954;SDS011;8594;52.052;8.354;2024-03-23T02:45:03;15.27;;;4.43;;
16954;SDS011;8594;52.052;8.354;2024-03-23T02:47:30;14.17;;;4.17;;
16954;SDS011;8594;52.052;8.354;2024-03-23T02:49:56;12.07;;;4.30;;
16954;SDS011;8594;52.052;8.354;2024-03-23T02:52:22;11.30;;;3.73;;
16954;SDS011;8594;52.052;8.354;2024-03-23T02:54:49;12.93;;;3.97;;
16954;SDS011;8594;52.052;8.354;2024-03-23T02:57:16;14.07;;;3.70;;
16954;SDS011;8594;52.052;8.354;2024-03-23T02:59:43;12.27;;;4.13;;
16954;SDS011;8594;52.052;8.354;2024-03-23T03:02:09;11.43;;;3.93;;
16954;SDS011;8594;52.052;8.354;2024-03-23T03:04:36;14.77;;;3.80;;
16954;SDS011;8594;52.052;8.354;2024-03-23T03:07:01;12.03;;;4.63;;
16954;SDS011;8594;52.052;8.354;2024-03-23T03:09:29;10.00;;;3.33;;
16954;SDS011;8594;52.052;8.354;2024-03-23T03:11:55;12.30;;;3.70;;
16954;SDS011;8594;52.052;8.354;2024-03-23T03:14:23;10.87;;;3.70;;
16954;SDS011;8594;52.052;8.354;2024-03-23T03:16:49;12.50;;;4.10;;
16954;SDS011;8594;52.052;8.354;2024-03-23T03:19:15;11.83;;;3.80;;
16954;SDS011;8594;52.052;8.354;2024-03-23T03:21:41;13.40;;;3.70;;
16954;SDS011;8594;52.052;8.354;2024-03-23T03:24:08;13.47;;;3.63;;
16954;SDS011;8594;52.052;8.354;2024-03-23T03:26:34;11.60;;;3.53;;
16954;SDS011;8594;52.052;8.354;2024-03-23T03:29:01;14.23;;;3.37;;
16954;SDS011;8594;52.052;8.354;2024-03-23T03:31:29;8.87;;;3.13;;
16954;SDS011;8594;52.052;8.354;2024-03-23T03:33:56;11.10;;;3.27;;
16954;SDS011;8594;52.052;8.354;2024-03-23T03:36:22;12.57;;;4.00;;
16954;SDS011;8594;52.052;8.354;2024-03-23T03:38:48;9.57;;;2.80;;
16954;SDS011;8594;52.052;8.354;2024-03-23T03:41:14;15.13;;;3.60;;
16954;SDS011;8594;52.052;8.354;2024-03-23T03:43:41;9.20;;;2.87;;
16954;SDS011;8594;52.052;8.354;2024-03-23T03:46:07;12.37;;;3.33;;
16954;SDS011;8594;52.052;8.354;2024-03-23T03:48:36;9.83;;;3.20;;
16954;SDS011;8594;52.052;8.354;2024-03-23T03:51:02;15.20;;;3.50;;
16954;SDS011;8594;52.052;8.354;2024-03-23T03:53:30;14.23;;;3.53;;
16954;SDS011;8594;52.052;8.354;2024-03-23T03:55:55;9.90;;;2.53;;
16954;SDS011;8594;52.052;8.354;2024-03-23T03:58:22;11.37;;;3.00;;
16954;SDS011;8594;52.052;8.354;2024-03-23T04:00:48;12.93;;;3.47;;
16954;SDS011;8594;52.052;8.354;2024-03-23T04:03:15;7.97;;;3.20;;
16954;SDS011;8594;52.052;8.354;2024-03-23T04:05:42;11.70;;;3.13;;
16954;SDS011;8594;52.052;8.354;2024-03-23T04:08:09;13.73;;;3.50;;
16954;SDS011;8594;52.052;8.354;2024-03-23T04:10:34;9.27;;;3.07;;
16954;SDS011;8594;52.052;8.354;2024-03-23T04:13:01;11.87;;;3.23;;
16954;SDS011;8594;52.052;8.354;2024-03-23T04:15:29;10.00;;;3.40;;
16954;SDS011;8594;52.052;8.354;2024-03-23T04:17:56;11.70;;;3.47;;
16954;SDS011;8594;52.052;8.354;2024-03-23T04:20:22;13.83;;;3.00;;
16954;SDS011;8594;52.052;8.354;2024-03-23T04:22:50;14.60;;;3.40;;
16954;SDS011;8594;52.052;8.354;2024-03-23T04:25:15;13.07;;;3.77;;
16954;SDS011;8594;52.052;8.354;2024-03-23T04:27:44;13.57;;;3.33;;
16954;SDS011;8594;52.052;8.354;2024-03-23T04:30:11;11.70;;;3.40;;
16954;SDS011;8594;52.052;8.354;2024-03-23T04:32:39;13.27;;;3.63;;
16954;SDS011;8594;52.052;8.354;2024-03-23T04:35:05;16.90;;;3.73;;
16954;SDS011;8594;52.052;8.354;2024-03-23T04:37:34;9.40;;;3.33;;
16954;SDS011;8594;52.052;8.354;2024-03-23T04:40:03;14.60;;;3.87;;
16954;SDS011;8594;52.052;8.354;2024-03-23T04:42:32;12.10;;;3.33;;
16954;SDS011;8594;52.052;8.354;2024-03-23T04:44:59;10.83;;;3.40;;
16954;SDS011;8594;52.052;8.354;2024-03-23T04:47:26;13.30;;;4.07;;
16954;SDS011;8594;52.052;8.354;2024-03-23T04:49:53;13.17;;;4.50;;
16954;SDS011;8594;52.052;8.354;2024-03-23T04:52:19;17.23;;;4.10;;
16954;SDS011;8594;52.052;8.354;2024-03-23T04:54:46;14.20;;;4.00;;
16954;SDS011;8594;52.052;8.354;2024-03-23T04:57:14;15.37;;;4.23;;
16954;SDS011;8594;52.052;8.354;2024-03-23T04:59:41;15.23;;;3.93;;
16954;SDS011;8594;52.052;8.354;2024-03-23T05:02:07;12.63;;;4.87;;
16954;SDS011;8594;52.052;8.354;2024-03-23T05:04:35;11.00;;;4.33;;
16954;SDS011;8594;52.052;8.354;2024-03-23T05:07:02;12.37;;;3.70;;
16954;SDS011;8594;52.052;8.354;2024-03-23T05:09:29;12.60;;;3.67;;
16954;SDS011;8594;52.052;8.354;2024-03-23T05:11:55;11.53;;;3.70;;
16954;SDS011;8594;52.052;8.354;2024-03-23T05:14:23;12.33;;;4.10;;
16954;SDS011;8594;52.052;8.354;2024-03-23T05:16:49;12.90;;;3.73;;
16954;SDS011;8594;52.052;8.354;2024-03-23T05:19:16;15.87;;;4.03;;
16954;SDS011;8594;52.052;8.354;2024-03-23T05:21:42;15.80;;;3.97;;
16954;SDS011;8594;52.052;8.354;2024-03-23T05:24:08;10.27;;;3.97;;
16954;SDS011;8594;52.052;8.354;2024-03-23T05:26:35;15.60;;;4.57;;
16954;SDS011;8594;52.052;8.354;2024-03-23T05:29:01;13.73;;;4.27;;
16954;SDS011;8594;52.052;8.354;2024-03-23T05:31:30;16.93;;;4.93;;
16954;SDS011;8594;52.052;8.354;2024-03-23T05:33:57;17.33;;;5.03;;
16954;SDS011;8594;52.052;8.354;2024-03-23T05:36:23;20.53;;;4.97;;
16954;SDS011;8594;52.052;8.354;2024-03-23T05:38:50;12.80;;;4.60;;
16954;SDS011;8594;52.052;8.354;2024-03-23T05:41:16;17.33;;;5.70;;
16954;SDS011;8594;52.052;8.354;2024-03-23T05:43:42;16.47;;;4.83;;
16954;SDS011;8594;52.052;8.354;2024-03-23T05:46:08;16.80;;;5.37;;
16954;SDS011;8594;52.052;8.354;2024-03-23T05:48:36;19.73;;;5.80;;
16954;SDS011;8594;52.052;8.354;2024-03-23T05:51:02;14.17;;;4.93;;
16954;SDS011;8594;52.052;8.354;2024-03-23T05:53:30;21.23;;;5.53;;
16954;SDS011;8594;52.052;8.354;2024-03-23T05:56:00;20.30;;;5.80;;
16954;SDS011;8594;52.052;8.354;2024-03-23T05:58:29;17.67;;;5.70;;
16954;SDS011;8594;52.052;8.354;2024-03-23T06:00:59;21.40;;;7.37;;
16954;SDS011;8594;52.052;8.354;2024-03-23T06:03:27;27.30;;;7.77;;
16954;SDS011;8594;52.052;8.354;2024-03-23T06:05:55;23.80;;;7.20;;
16954;SDS011;8594;52.052;8.354;2024-03-23T06:08:22;27.47;;;7.33;;
16954;SDS011;8594;52.052;8.354;2024-03-23T06:10:49;32.00;;;8.47;;
16954;SDS011;8594;52.052;8.354;2024-03-23T06:13:16;31.63;;;8.73;;
16954;SDS011;8594;52.052;8.354;2024-03-23T06:15:42;28.47;;;8.83;;
16954;SDS011;8594;52.052;8.354;2024-03-23T06:18:11;39.83;;;9.40;;
16954;SDS011;8594;52.052;8.354;2024-03-23T06:20:37;32.23;;;8.97;;
16954;SDS011;8594;52.052;8.354;2024-03-23T06:23:05;26.40;;;9.53;;
16954;SDS011;8594;52.052;8.354;2024-03-23T06:25:32;37.23;;;9.80;;
16954;SDS011;8594;52.052;8.354;2024-03-23T06:27:58;32.07;;;9.63;;
16954;SDS011;8594;52.052;8.354;2024-03-23T06:30:26;30.00;;;9.57;;
16954;SDS011;8594;52.052;8.354;2024-03-23T06:32:52;27.60;;;9.50;;
16954;SDS011;8594;52.052;8.354;2024-03-23T06:35:19;28.87;;;9.53;;
16954;SDS011;8594;52.052;8.354;2024-03-23T06:37:45;31.93;;;9.40;;
16954;SDS011;8594;52.052;8.354;2024-03-23T06:40:13;29.43;;;9.77;;
16954;SDS011;8594;52.052;8.354;2024-03-23T06:42:39;33.60;;;9.83;;
16954;SDS011;8594;52.052;8.354;2024-03-23T06:45:06;31.20;;;9.20;;
16954;SDS011;8594;52.052;8.354;2024-03-23T06:47:32;35.23;;;10.33;;
16954;SDS011;8594;52.052;8.354;2024-03-23T06:49:59;28.63;;;9.00;;
16954;SDS011;8594;52.052;8.354;2024-03-23T06:52:26;25.97;;;9.33;;
16954;SDS011;8594;52.052;8.354;2024-03-23T06:54:53;32.23;;;9.50;;
16954;SDS011;8594;52.052;8.354;2024-03-23T06:57:21;33.90;;;11.77;;
16954;SDS011;8594;52.052;8.354;2024-03-23T06:59:47;37.90;;;9.73;;
16954;SDS011;8594;52.052;8.354;2024-03-23T07:02:14;33.30;;;10.13;;
16954;SDS011;8594;52.052;8.354;2024-03-23T07:04:41;31.10;;;10.23;;
16954;SDS011;8594;52.052;8.354;2024-03-23T07:07:07;33.67;;;10.40;;
16954;SDS011;8594;52.052;8.354;2024-03-23T07:09:33;28.50;;;9.23;;
16954;SDS011;8594;52.052;8.354;2024-03-23T07:11:59;30.80;;;10.70;;
16954;SDS011;8594;52.052;8.354;2024-03-23T07:14:27;32.23;;;9.63;;
16954;SDS011;8594;52.052;8.354;2024-03-23T07:16:53;27.70;;;9.90;;
16954;SDS011;8594;52.052;8.354;2024-03-23T07:19:20;26.13;;;9.97;;
16954;SDS011;8594;52.052;8.354;2024-03-23T07:21:45;28.80;;;10.57;;
16954;SDS011;8594;52.052;8.354;2024-03-23T07:24:12;38.13;;;11.03;;
16954;SDS011;8594;52.052;8.354;2024-03-23T07:26:38;38.10;;;11.60;;
16954;SDS011;8594;52.052;8.354;2024-03-23T07:29:06;34.73;;;11.10;;
16954;SDS011;8594;52.052;8.354;2024-03-23T07:31:33;34.60;;;10.97;;
16954;SDS011;8594;52.052;8.354;2024-03-23T07:33:59;34.53;;;11.57;;
16954;SDS011;8594;52.052;8.354;2024-03-23T07:36:25;38.33;;;11.10;;
16954;SDS011;8594;52.052;8.354;2024-03-23T07:38:52;36.70;;;12.07;;
16954;SDS011;8594;52.052;8.354;2024-03-23T07:41:26;37.27;;;11.47;;
16954;SDS011;8594;52.052;8.354;2024-03-23T07:43:53;34.60;;;13.67;;
16954;SDS011;8594;52.052;8.354;2024-03-23T07:46:20;24.43;;;11.10;;
16954;SDS011;8594;52.052;8.354;2024-03-23T07:48:47;32.17;;;11.00;;
16954;SDS011;8594;52.052;8.354;2024-03-23T07:51:15;34.80;;;11.67;;
16954;SDS011;8594;52.052;8.354;2024-03-23T07:53:44;33.37;;;11.07;;
16954;SDS011;8594;52.052;8.354;2024-03-23T07:56:11;33.80;;;12.07;;
16954;SDS011;8594;52.052;8.354;2024-03-23T07:58:41;36.87;;;11.40;;
16954;SDS011;8594;52.052;8.354;2024-03-23T08:01:08;28.13;;;10.03;;
16954;SDS011;8594;52.052;8.354;2024-03-23T08:03:36;27.87;;;9.80;;
16954;SDS011;8594;52.052;8.354;2024-03-23T08:06:07;27.37;;;10.67;;
16954;SDS011;8594;52.052;8.354;2024-03-23T08:08:34;33.23;;;10.50;;
16954;SDS011;8594;52.052;8.354;2024-03-23T08:11:01;28.30;;;9.23;;
16954;SDS011;8594;52.052;8.354;2024-03-23T08:13:28;28.93;;;9.93;;
16954;SDS011;8594;52.052;8.354;2024-03-23T08:16:00;24.50;;;9.63;;
16954;SDS011;8594;52.052;8.354;2024-03-23T08:18:28;23.17;;;8.30;;
16954;SDS011;8594;52.052;8.354;2024-03-23T08:20:55;30.87;;;10.40;;
16954;SDS011;8594;52.052;8.354;2024-03-23T08:23:22;23.33;;;8.83;;
16954;SDS011;8594;52.052;8.354;2024-03-23T08:25:49;26.03;;;9.20;;
16954;SDS011;8594;52.052;8.354;2024-03-23T08:28:15;27.97;;;9.53;;
16954;SDS011;8594;52.052;8.354;2024-03-23T08:30:42;26.93;;;8.53;;
16954;SDS011;8594;52.052;8.354;2024-03-23T08:33:09;24.07;;;7.97;;
16954;SDS011;8594;52.052;8.354;2024-03-23T08:35:36;32.97;;;8.00;;
16954;SDS011;8594;52.052;8.354;2024-03-23T08:38:01;24.07;;;7.70;;
16954;SDS011;8594;52.052;8.354;2024-03-23T08:40:28;30.77;;;7.27;;
16954;SDS011;8594;52.052;8.354;2024-03-23T08:42:54;26.83;;;6.90;;
16954;SDS011;8594;52.052;8.354;2024-03-23T08:45:21;16.37;;;6.33;;
16954;SDS011;8594;52.052;8.354;2024-03-23T08:47:47;18.47;;;6.40;;
16954;SDS011;8594;52.052;8.354;2024-03-23T08:50:15;29.07;;;6.90;;
16954;SDS011;8594;52.052;8.354;2024-03-23T08:52:41;18.67;;;5.13;;
16954;SDS011;8594;52.052;8.354;2024-03-23T08:55:07;17.70;;;5.77;;
16954;SDS011;8594;52.052;8.354;2024-03-23T08:57:34;19.30;;;5.27;;
16954;SDS011;8594;52.052;8.354;2024-03-23T09:00:01;21.77;;;6.10;;
16954;SDS011;8594;52.052;8.354;2024-03-23T09:02:28;23.33;;;5.80;;
16954;SDS011;8594;52.052;8.354;2024-03-23T09:04:55;16.57;;;5.57;;
16954;SDS011;8594;52.052;8.354;2024-03-23T09:07:22;19.50;;;5.13;;
16954;SDS011;8594;52.052;8.354;2024-03-23T09:09:49;19.13;;;4.53;;
16954;SDS011;8594;52.052;8.354;2024-03-23T09:12:14;11.37;;;4.30;;
16954;SDS011;8594;52.052;8.354;2024-03-23T09:14:41;15.47;;;5.53;;
16954;SDS011;8594;52.052;8.354;2024-03-23T09:17:07;27.17;;;6.10;;
16954;SDS011;8594;52.052;8.354;2024-03-23T09:19:34;22.87;;;5.00;;
16954;SDS011;8594;52.052;8.354;2024-03-23T09:22:00;14.77;;;4.40;;
16954;SDS011;8594;52.052;8.354;2024-03-23T09:24:28;18.73;;;4.30;;
16954;SDS011;8594;52.052;8.354;2024-03-23T09:26:54;16.83;;;3.97;;
16954;SDS011;8594;52.052;8.354;2024-03-23T09:29:20;19.43;;;5.13;;
16954;SDS011;8594;52.052;8.354;2024-03-23T09:31:46;19.77;;;4.57;;
16954;SDS011;8594;52.052;8.354;2024-03-23T09:34:13;17.30;;;4.00;;
16954;SDS011;8594;52.052;8.354;2024-03-23T09:36:40;13.30;;;4.67;;
16954;SDS011;8594;52.052;8.354;2024-03-23T09:39:07;14.00;;;4.63;;
16954;SDS011;8594;52.052;8.354;2024-03-23T09:41:35;14.30;;;4.00;;
16954;SDS011;8594;52.052;8.354;2024-03-23T09:44:02;16.17;;;4.73;;
16954;SDS011;8594;52.052;8.354;2024-03-23T09:46:30;13.20;;;4.47;;
16954;SDS011;8594;52.052;8.354;2024-03-23T09:48:59;16.03;;;3.60;;
16954;SDS011;8594;52.052;8.354;2024-03-23T09:51:26;17.23;;;3.43;;
16954;SDS011;8594;52.052;8.354;2024-03-23T09:53:53;15.33;;;3.17;;
16954;SDS011;8594;52.052;8.354;2024-03-23T09:56:19;11.73;;;3.57;;
16954;SDS011;8594;52.052;8.354;2024-03-23T09:58:47;12.63;;;3.13;;
16954;SDS011;8594;52.052;8.354;2024-03-23T10:01:13;14.53;;;3.10;;
16954;SDS011;8594;52.052;8.354;2024-03-23T10:03:43;11.33;;;3.20;;
16954;SDS011;8594;52.052;8.354;2024-03-23T10:06:09;12.53;;;3.00;;
16954;SDS011;8594;52.052;8.354;2024-03-23T10:08:36;10.87;;;3.20;;
16954;SDS011;8594;52.052;8.354;2024-03-23T10:11:12;11.33;;;2.63;;
16954;SDS011;8594;52.052;8.354;2024-03-23T10:13:41;8.03;;;2.73;;
16954;SDS011;8594;52.052;8.354;2024-03-23T10:16:10;10.87;;;2.97;;
16954;SDS011;8594;52.052;8.354;2024-03-23T10:18:37;14.53;;;3.17;;
16954;SDS011;8594;52.052;8.354;2024-03-23T10:21:07;15.57;;;3.47;;
16954;SDS011;8594;52.052;8.354;2024-03-23T10:23:36;15.07;;;3.20;;
16954;SDS011;8594;52.052;8.354;2024-03-23T10:26:13;17.70;;;3.47;;
16954;SDS011;8594;52.052;8.354;2024-03-23T10:28:53;11.20;;;2.80;;
16954;SDS011;8594;52.052;8.354;2024-03-23T10:31:24;10.50;;;3.10;;
16954;SDS011;8594;52.052;8.354;2024-03-23T10:33:51;8.27;;;2.70;;
16954;SDS011;8594;52.052;8.354;2024-03-23T10:36:19;10.97;;;3.23;;
16954;SDS011;8594;52.052;8.354;2024-03-23T10:38:47;10.87;;;3.23;;
16954;SDS011;8594;52.052;8.354;2024-03-23T10:41:16;15.00;;;3.40;;
16954;SDS011;8594;52.052;8.354;2024-03-23T10:43:44;15.17;;;3.23;;
16954;SDS011;8594;52.052;8.354;2024-03-23T10:46:12;12.87;;;3.57;;
16954;SDS011;8594;52.052;8.354;2024-03-23T10:48:40;10.07;;;3.63;;
16954;SDS011;8594;52.052;8.354;2024-03-23T10:51:06;11.93;;;4.17;;
16954;SDS011;8594;52.052;8.354;2024-03-23T10:53:35;14.00;;;4.00;;
16954;SDS011;8594;52.052;8.354;2024-03-23T10:56:02;9.83;;;2.83;;
16954;SDS011;8594;52.052;8.354;2024-03-23T10:58:31;12.03;;;3.27;;
16954;SDS011;8594;52.052;8.354;2024-03-23T11:01:04;10.57;;;3.87;;
16954;SDS011;8594;52.052;8.354;2024-03-23T11:03:34;14.27;;;3.50;;
16954;SDS011;8594;52.052;8.354;2024-03-23T11:06:03;8.33;;;2.90;;
16954;SDS011;8594;52.052;8.354;2024-03-23T11:08:31;14.17;;;3.07;;
16954;SDS011;8594;52.052;8.354;2024-03-23T11:11:13;6.07;;;2.07;;
16954;SDS011;8594;52.052;8.354;2024-03-23T11:13:42;4.67;;;1.70;;
16954;SDS011;8594;52.052;8.354;2024-03-23T11:16:12;5.27;;;1.50;;
16954;SDS011;8594;52.052;8.354;2024-03-23T11:18:41;7.40;;;1.70;;
16954;SDS011;8594;52.052;8.354;2024-03-23T11:21:09;4.43;;;1.40;;
16954;SDS011;8594;52.052;8.354;2024-03-23T11:23:37;4.50;;;1.77;;
16954;SDS011;8594;52.052;8.354;2024-03-23T11:26:06;5.57;;;1.50;;
16954;SDS011;8594;52.052;8.354;2024-03-23T11:28:34;8.63;;;2.17;;
16954;SDS011;8594;52.052;8.354;2024-03-23T11:30:59;6.47;;;2.37;;
16954;SDS011;8594;52.052;8.354;2024-03-23T11:33:26;5.10;;;2.17;;
16954;SDS011;8594;52.052;8.354;2024-03-23T11:35:54;8.80;;;2.40;;
16954;SDS011;8594;52.052;8.354;2024-03-23T11:38:22;9.80;;;2.77;;
16954;SDS011;8594;52.052;8.354;2024-03-23T11:40:48;10.77;;;2.40;;
16954;SDS011;8594;52.052;8.354;2024-03-23T11:43:16;7.33;;;2.83;;
16954;SDS011;8594;52.052;8.354;2024-03-23T11:45:44;5.80;;;2.87;;
16954;SDS011;8594;52.052;8.354;2024-03-23T11:48:13;8.27;;;2.73;;
16954;SDS011;8594;52.052;8.354;2024-03-23T11:50:43;9.17;;;2.80;;
16954;SDS011;8594;52.052;8.354;2024-03-23T11:53:15;10.83;;;2.63;;
16954;SDS011;8594;52.052;8.354;2024-03-23T11:55:45;9.67;;;2.50;;
16954;SDS011;8594;52.052;8.354;2024-03-23T11:58:14;10.97;;;2.47;;
16954;SDS011;8594;52.052;8.354;2024-03-23T12:00:41;11.03;;;2.53;;
16954;SDS011;8594;52.052;8.354;2024-03-23T12:03:15;10.50;;;3.00;;
16954;SDS011;8594;52.052;8.354;2024-03-23T12:05:42;9.47;;;2.97;;
16954;SDS011;8594;52.052;8.354;2024-03-23T12:08:16;13.73;;;3.00;;
16954;SDS011;8594;52.052;8.354;2024-03-23T12:10:49;7.97;;;2.67;;
16954;SDS011;8594;52.052;8.354;2024-03-23T12:13:18;12.33;;;3.27;;
16954;SDS011;8594;52.052;8.354;2024-03-23T12:15:45;7.63;;;3.00;;
16954;SDS011;8594;52.052;8.354;2024-03-23T12:18:13;7.13;;;2.63;;
16954;SDS011;8594;52.052;8.354;2024-03-23T12:20:39;12.47;;;2.30;;
16954;SDS011;8594;52.052;8.354;2024-03-23T12:23:07;4.70;;;2.17;;
16954;SDS011;8594;52.052;8.354;2024-03-23T12:25:36;6.70;;;2.33;;
16954;SDS011;8594;52.052;8.354;2024-03-23T12:28:06;9.63;;;2.33;;
16954;SDS011;8594;52.052;8.354;2024-03-23T12:30:35;4.20;;;1.30;;
16954;SDS011;8594;52.052;8.354;2024-03-23T12:33:06;5.47;;;2.20;;
16954;SDS011;8594;52.052;8.354;2024-03-23T12:35:32;8.77;;;1.70;;
16954;SDS011;8594;52.052;8.354;2024-03-23T12:37:59;5.90;;;1.70;;
16954;SDS011;8594;52.052;8.354;2024-03-23T12:40:25;5.37;;;2.00;;
16954;SDS011;8594;52.052;8.354;2024-03-23T12:42:52;3.50;;;1.70;;
16954;SDS011;8594;52.052;8.354;2024-03-23T12:45:20;5.40;;;1.83;;
16954;SDS011;8594;52.052;8.354;2024-03-23T12:47:46;10.30;;;2.20;;
16954;SDS011;8594;52.052;8.354;2024-03-23T12:50:12;7.43;;;1.90;;
16954;SDS011;8594;52.052;8.354;2024-03-23T12:52:39;5.20;;;2.20;;
16954;SDS011;8594;52.052;8.354;2024-03-23T12:55:05;5.70;;;2.27;;
16954;SDS011;8594;52.052;8.354;2024-03-23T12:57:32;12.43;;;2.23;;
16954;SDS011;8594;52.052;8.354;2024-03-23T12:59:58;7.80;;;2.43;;
16954;SDS011;8594;52.052;8.354;2024-03-23T13:02:27;8.30;;;2.40;;
16954;SDS011;8594;52.052;8.354;2024-03-23T13:04:53;8.13;;;2.10;;
16954;SDS011;8594;52.052;8.354;2024-03-23T13:07:20;3.20;;;1.13;;
16954;SDS011;8594;52.052;8.354;2024-03-23T13:09:49;2.37;;;1.00;;
16954;SDS011;8594;52.052;8.354;2024-03-23T13:12:17;4.73;;;1.33;;
16954;SDS011;8594;52.052;8.354;2024-03-23T13:14:44;3.17;;;1.23;;
16954;SDS011;8594;52.052;8.354;2024-03-23T13:17:14;3.03;;;1.43;;
16954;SDS011;8594;52.052;8.354;2024-03-23T13:19:41;2.53;;;1.40;;
16954;SDS011;8594;52.052;8.354;2024-03-23T13:22:08;4.33;;;1.40;;
16954;SDS011;8594;52.052;8.354;2024-03-23T13:24:36;6.17;;;1.73;;
16954;SDS011;8594;52.052;8.354;2024-03-23T13:27:04;6.37;;;1.70;;
16954;SDS011;8594;52.052;8.354;2024-03-23T13:29:32;6.77;;;1.83;;
16954;SDS011;8594;52.052;8.354;2024-03-23T13:32:00;4.90;;;1.90;;
16954;SDS011;8594;52.052;8.354;2024-03-23T13:34:26;5.33;;;2.50;;
16954;SDS011;8594;52.052;8.354;2024-03-23T13:36:55;6.67;;;2.10;;
16954;SDS011;8594;52.052;8.354;2024-03-23T13:39:23;6.87;;;1.90;;
16954;SDS011;8594;52.052;8.354;2024-03-23T13:41:50;3.30;;;1.80;;
16954;SDS011;8594;52.052;8.354;2024-03-23T13:44:16;3.77;;;2.23;;
16954;SDS011;8594;52.052;8.354;2024-03-23T13:46:42;6.07;;;2.20;;
16954;SDS011;8594;52.052;8.354;2024-03-23T13:49:09;3.00;;;1.70;;
16954;SDS011;8594;52.052;8.354;2024-03-23T13:51:50;4.87;;;1.50;;
16954;SDS011;8594;52.052;8.354;2024-03-23T13:54:17;6.57;;;1.87;;
16954;SDS011;8594;52.052;8.354;2024-03-23T13:56:44;6.23;;;2.03;;
16954;SDS011;8594;52.052;8.354;2024-03-23T13:59:10;7.77;;;1.80;;
16954;SDS011;8594;52.052;8.354;2024-03-23T14:01:36;10.27;;;1.80;;
16954;SDS011;8594;52.052;8.354;2024-03-23T14:04:02;5.93;;;2.30;;
16954;SDS011;8594;52.052;8.354;2024-03-23T14:06:30;7.27;;;2.20;;
16954;SDS011;8594;52.052;8.354;2024-03-23T14:08:55;5.57;;;2.20;;
16954;SDS011;8594;52.052;8.354;2024-03-23T14:11:23;6.63;;;2.30;;
16954;SDS011;8594;52.052;8.354;2024-03-23T14:13:51;4.37;;;2.03;;
16954;SDS011;8594;52.052;8.354;2024-03-23T14:16:18;5.20;;;2.00;;
16954;SDS011;8594;52.052;8.354;2024-03-23T14:18:45;5.33;;;2.33;;
16954;SDS011;8594;52.052;8.354;2024-03-23T14:21:12;5.10;;;1.30;;
16954;SDS011;8594;52.052;8.354;2024-03-23T14:23:38;2.10;;;0.90;;
16954;SDS011;8594;52.052;8.354;2024-03-23T14:26:06;4.87;;;1.53;;
16954;SDS011;8594;52.052;8.354;2024-03-23T14:28:34;2.70;;;1.40;;
16954;SDS011;8594;52.052;8.354;2024-03-23T14:31:01;4.50;;;1.33;;
16954;SDS011;8594;52.052;8.354;2024-03-23T14:33:28;11.27;;;1.90;;
16954;SDS011;8594;52.052;8.354;2024-03-23T14:35:55;4.83;;;1.90;;
16954;SDS011;8594;52.052;8.354;2024-03-23T14:38:22;4.27;;;2.27;;
16954;SDS011;8594;52.052;8.354;2024-03-23T14:40:49;3.30;;;1.63;;
16954;SDS011;8594;52.052;8.354;2024-03-23T14:43:16;6.77;;;2.00;;
16954;SDS011;8594;52.052;8.354;2024-03-23T14:46:05;5.53;;;1.80;;
16954;SDS011;8594;52.052;8.354;2024-03-23T14:48:32;11.03;;;2.33;;
16954;SDS011;8594;52.052;8.354;2024-03-23T14:51:00;4.37;;;2.20;;
16954;SDS011;8594;52.052;8.354;2024-03-23T14:53:29;6.87;;;2.23;;
16954;SDS011;8594;52.052;8.354;2024-03-23T14:55:56;6.63;;;2.33;;
16954;SDS011;8594;52.052;8.354;2024-03-23T14:58:22;4.90;;;2.37;;
16954;SDS011;8594;52.052;8.354;2024-03-23T15:00:51;6.40;;;2.30;;
16954;SDS011;8594;52.052;8.354;2024-03-23T15:03:17;8.03;;;2.50;;
16954;SDS011;8594;52.052;8.354;2024-03-23T15:05:51;7.93;;;2.43;;
16954;SDS011;8594;52.052;8.354;2024-03-23T15:08:18;4.30;;;1.70;;
16954;SDS011;8594;52.052;8.354;2024-03-23T15:10:45;4.70;;;1.80;;
16954;SDS011;8594;52.052;8.354;2024-03-23T15:13:10;6.20;;;2.30;;
16954;SDS011;8594;52.052;8.354;2024-03-23T15:15:38;3.77;;;1.67;;
16954;SDS011;8594;52.052;8.354;2024-03-23T15:18:07;9.03;;;1.90;;
16954;SDS011;8594;52.052;8.354;2024-03-23T15:20:33;50.67;;;21.80;;
16954;SDS011;8594;52.052;8.354;2024-03-23T15:23:00;4.67;;;1.70;;
16954;SDS011;8594;52.052;8.354;2024-03-23T15:25:28;8.40;;;2.90;;
16954;SDS011;8594;52.052;8.354;2024-03-23T15:27:54;4.83;;;2.07;;
16954;SDS011;8594;52.052;8.354;2024-03-23T15:30:20;7.90;;;2.30;;
16954;SDS011;8594;52.052;8.354;2024-03-23T15:32:46;2.73;;;1.83;;
16954;SDS011;8594;52.052;8.354;2024-03-23T15:35:14;6.60;;;2.10;;
16954;SDS011;8594;52.052;8.354;2024-03-23T15:37:40;4.77;;;1.90;;
16954;SDS011;8594;52.052;8.354;2024-03-23T15:40:07;6.53;;;2.13;;
16954;SDS011;8594;52.052;8.354;2024-03-23T15:42:35;7.13;;;2.40;;
16954;SDS011;8594;52.052;8.354;2024-03-23T15:45:02;5.53;;;2.33;;